SVA209 EGLL-LEMD
Flight info
| Callsign | SVA209 |
|---|---|
| Flight time | 1h 50m |
| Altitude | 32000 |
| Route | GASGU2J GASGU N866 SAM M195 MARUK N621 LELNA DCT NOVAN DCT DELOG N864 NONTU NONTU4C |
| Aircraft | A320/M-SDE3FGHIRWY/LB1 |
Departure
| Time | 2026-05-06 04:15 |
|---|---|
| Airport | London Heathrow Airport (EGLL) |
Arrival
| Time | 2026-05-06 06:05 |
|---|---|
| Airport | Adolfo Suárez Madrid–Barajas Airport (LEMD) |
| Time | Latitude | Longitude | Altitude | Speed | Heading |
|---|---|---|---|---|---|
| 2026-05-06 03:14 | 51.46177 | -0.44620 | 86 ft | 0 kts | 131° |
| 2026-05-06 03:59 | 51.46184 | -0.44635 | 89 ft | 2 kts | 131° |
| 2026-05-06 03:59 | 51.46196 | -0.44655 | 91 ft | 2 kts | 131° |
| 2026-05-06 03:59 | 51.46203 | -0.44669 | 88 ft | 2 kts | 131° |
| 2026-05-06 04:00 | 51.46214 | -0.44689 | 86 ft | 2 kts | 125° |
| 2026-05-06 04:00 | 51.46224 | -0.44711 | 87 ft | 2 kts | 125° |
| 2026-05-06 04:00 | 51.46232 | -0.44735 | 87 ft | 2 kts | 110° |
| 2026-05-06 04:00 | 51.46235 | -0.44762 | 87 ft | 2 kts | 53° |
| 2026-05-06 04:01 | 51.46234 | -0.44766 | 87 ft | 0 kts | 46° |
| 2026-05-06 04:05 | 51.46243 | -0.44752 | 88 ft | 4 kts | 43° |
| 2026-05-06 04:05 | 51.46266 | -0.44721 | 86 ft | 4 kts | 32° |
| 2026-05-06 04:05 | 51.46307 | -0.44738 | 89 ft | 12 kts | 315° |
| 2026-05-06 04:06 | 51.46318 | -0.44927 | 86 ft | 20 kts | 270° |
| 2026-05-06 04:06 | 51.46318 | -0.45157 | 86 ft | 21 kts | 270° |
| 2026-05-06 04:06 | 51.46316 | -0.45402 | 90 ft | 22 kts | 269° |
| 2026-05-06 04:06 | 51.46321 | -0.45658 | 86 ft | 24 kts | 276° |
| 2026-05-06 04:07 | 51.46324 | -0.45928 | 86 ft | 25 kts | 270° |
| 2026-05-06 04:07 | 51.46322 | -0.46209 | 86 ft | 26 kts | 270° |
| 2026-05-06 04:07 | 51.46321 | -0.46502 | 86 ft | 27 kts | 269° |
| 2026-05-06 04:07 | 51.46322 | -0.46806 | 86 ft | 28 kts | 271° |
| 2026-05-06 04:08 | 51.46322 | -0.47018 | 86 ft | 12 kts | 269° |
| 2026-05-06 04:08 | 51.46321 | -0.47139 | 86 ft | 10 kts | 269° |
| 2026-05-06 04:08 | 51.46320 | -0.47238 | 87 ft | 7 kts | 269° |
| 2026-05-06 04:08 | 51.46320 | -0.47300 | 88 ft | 4 kts | 274° |
| 2026-05-06 04:09 | 51.46323 | -0.47348 | 87 ft | 5 kts | 275° |
| 2026-05-06 04:09 | 51.46329 | -0.47389 | 89 ft | 5 kts | 285° |
| 2026-05-06 04:09 | 51.46339 | -0.47517 | 89 ft | 15 kts | 271° |
| 2026-05-06 04:09 | 51.46324 | -0.47671 | 92 ft | 13 kts | 242° |
| 2026-05-06 04:10 | 51.46265 | -0.47837 | 91 ft | 20 kts | 244° |
| 2026-05-06 04:10 | 51.46250 | -0.48056 | 88 ft | 20 kts | 270° |
| 2026-05-06 04:10 | 51.46250 | -0.48303 | 84 ft | 24 kts | 269° |
| 2026-05-06 04:10 | 51.46249 | -0.48544 | 86 ft | 12 kts | 272° |
| 2026-05-06 04:11 | 51.46281 | -0.48671 | 89 ft | 12 kts | 307° |
| 2026-05-06 04:11 | 51.46297 | -0.48696 | 88 ft | 0 kts | 319° |
| 2026-05-06 04:13 | 51.46299 | -0.48699 | 88 ft | 1 kts | 319° |
| 2026-05-06 04:13 | 51.46335 | -0.48737 | 87 ft | 11 kts | 332° |
| 2026-05-06 04:13 | 51.46413 | -0.48752 | 86 ft | 12 kts | 358° |
| 2026-05-06 04:13 | 51.46475 | -0.48680 | 87 ft | 12 kts | 74° |
| 2026-05-06 04:14 | 51.46478 | -0.48452 | 86 ft | 43 kts | 89° |
| 2026-05-06 04:14 | 51.46482 | -0.47578 | 87 ft | 111 kts | 89° |
| 2026-05-06 04:14 | 51.46485 | -0.46012 | 90 ft | 162 kts | 89° |
| 2026-05-06 04:14 | 51.46497 | -0.44081 | 642 ft | 166 kts | 86° |
| 2026-05-06 04:15 | 51.46490 | -0.42208 | 1399 ft | 170 kts | 92° |
| 2026-05-06 04:15 | 51.45963 | -0.40353 | 1777 ft | 199 kts | 126° |
| 2026-05-06 04:15 | 51.45029 | -0.38498 | 2076 ft | 223 kts | 122° |
| 2026-05-06 04:15 | 51.44091 | -0.36347 | 2516 ft | 246 kts | 120° |
| 2026-05-06 04:16 | 51.42942 | -0.34212 | 3241 ft | 262 kts | 140° |
| 2026-05-06 04:16 | 51.41278 | -0.32924 | 4044 ft | 274 kts | 167° |
| 2026-05-06 04:16 | 51.39357 | -0.32957 | 4876 ft | 279 kts | 197° |
| 2026-05-06 04:16 | 51.37614 | -0.34370 | 5665 ft | 280 kts | 222° |
| 2026-05-06 04:17 | 51.36168 | -0.36408 | 5929 ft | 277 kts | 225° |
| 2026-05-06 04:17 | 51.34750 | -0.38485 | 6000 ft | 275 kts | 226° |
| 2026-05-06 04:17 | 51.33342 | -0.40562 | 6009 ft | 276 kts | 225° |
| 2026-05-06 04:17 | 51.31936 | -0.42630 | 5986 ft | 273 kts | 225° |
| 2026-05-06 04:18 | 51.30670 | -0.44851 | 5987 ft | 269 kts | 241° |
| 2026-05-06 04:18 | 51.29976 | -0.47582 | 5988 ft | 265 kts | 257° |
| 2026-05-06 04:18 | 51.29483 | -0.50425 | 5986 ft | 265 kts | 257° |
| 2026-05-06 04:18 | 51.28977 | -0.53256 | 5985 ft | 265 kts | 257° |
| 2026-05-06 04:19 | 51.28464 | -0.56087 | 5984 ft | 265 kts | 256° |
| 2026-05-06 04:19 | 51.27939 | -0.58913 | 5983 ft | 265 kts | 256° |
| 2026-05-06 04:19 | 51.27394 | -0.61732 | 5982 ft | 266 kts | 255° |
| 2026-05-06 04:19 | 51.26841 | -0.64548 | 5981 ft | 266 kts | 255° |
| 2026-05-06 04:20 | 51.26288 | -0.67360 | 5982 ft | 265 kts | 255° |
| 2026-05-06 04:20 | 51.25737 | -0.70167 | 5981 ft | 265 kts | 255° |
| 2026-05-06 04:20 | 51.25346 | -0.72165 | 5981 ft | 265 kts | 255° |
| 2026-05-06 04:20 | 51.24789 | -0.75012 | 5982 ft | 265 kts | 255° |
| 2026-05-06 04:21 | 51.24252 | -0.77752 | 5981 ft | 266 kts | 255° |
| 2026-05-06 04:21 | 51.23704 | -0.80537 | 5982 ft | 266 kts | 255° |
| 2026-05-06 04:21 | 51.23151 | -0.83350 | 5980 ft | 265 kts | 255° |
| 2026-05-06 04:21 | 51.22598 | -0.86157 | 5981 ft | 265 kts | 255° |
| 2026-05-06 04:22 | 51.22046 | -0.88967 | 5982 ft | 266 kts | 255° |
| 2026-05-06 04:22 | 51.21496 | -0.91773 | 5981 ft | 265 kts | 255° |
| 2026-05-06 04:22 | 51.20900 | -0.94555 | 5980 ft | 266 kts | 248° |
| 2026-05-06 04:23 | 51.18540 | -0.99228 | 6888 ft | 276 kts | 226° |
| 2026-05-06 04:23 | 51.17154 | -1.01345 | 7812 ft | 278 kts | 226° |
| 2026-05-06 04:23 | 51.15756 | -1.03509 | 8651 ft | 282 kts | 227° |
| 2026-05-06 04:23 | 51.14337 | -1.05715 | 9443 ft | 288 kts | 226° |
| 2026-05-06 04:24 | 51.12885 | -1.07964 | 10188 ft | 295 kts | 226° |
| 2026-05-06 04:24 | 51.11357 | -1.10332 | 10491 ft | 318 kts | 226° |
| 2026-05-06 04:24 | 51.09702 | -1.12890 | 10712 ft | 342 kts | 226° |
| 2026-05-06 04:24 | 51.07943 | -1.15595 | 10861 ft | 365 kts | 225° |
| 2026-05-06 04:25 | 51.06063 | -1.18477 | 11145 ft | 381 kts | 225° |
| 2026-05-06 04:25 | 51.04136 | -1.21415 | 11740 ft | 387 kts | 225° |
| 2026-05-06 04:25 | 51.02184 | -1.24385 | 12401 ft | 390 kts | 225° |
| 2026-05-06 04:25 | 51.00214 | -1.27378 | 13083 ft | 394 kts | 225° |
| 2026-05-06 04:26 | 50.98227 | -1.30393 | 13754 ft | 396 kts | 225° |
| 2026-05-06 04:26 | 50.96222 | -1.33417 | 14334 ft | 399 kts | 224° |
| 2026-05-06 04:26 | 50.94008 | -1.36104 | 14902 ft | 403 kts | 215° |
| 2026-05-06 04:26 | 50.91660 | -1.38556 | 15480 ft | 405 kts | 215° |
| 2026-05-06 04:27 | 50.89295 | -1.41017 | 16066 ft | 407 kts | 215° |
| 2026-05-06 04:27 | 50.87005 | -1.43394 | 16626 ft | 409 kts | 215° |
| 2026-05-06 04:27 | 50.84620 | -1.45868 | 17165 ft | 412 kts | 214° |
| 2026-05-06 04:27 | 50.82269 | -1.48305 | 17688 ft | 414 kts | 214° |
| 2026-05-06 04:28 | 50.79884 | -1.50773 | 18218 ft | 417 kts | 214° |
| 2026-05-06 04:28 | 50.77450 | -1.53289 | 18678 ft | 419 kts | 214° |
| 2026-05-06 04:28 | 50.75004 | -1.55818 | 19134 ft | 421 kts | 214° |
| 2026-05-06 04:28 | 50.72547 | -1.58360 | 19589 ft | 424 kts | 214° |
| 2026-05-06 04:29 | 50.70074 | -1.60911 | 20046 ft | 426 kts | 214° |
| 2026-05-06 04:29 | 50.67589 | -1.63466 | 20478 ft | 428 kts | 214° |
| 2026-05-06 04:29 | 50.65090 | -1.66029 | 20907 ft | 430 kts | 214° |
| 2026-05-06 04:29 | 50.62579 | -1.68604 | 21300 ft | 432 kts | 214° |
| 2026-05-06 04:30 | 50.60054 | -1.71201 | 21673 ft | 435 kts | 214° |
| 2026-05-06 04:30 | 50.57481 | -1.73847 | 22068 ft | 437 kts | 214° |
| 2026-05-06 04:30 | 50.54930 | -1.76467 | 22470 ft | 439 kts | 214° |
| 2026-05-06 04:30 | 50.52400 | -1.79057 | 22870 ft | 441 kts | 214° |
| 2026-05-06 04:31 | 50.49827 | -1.81691 | 23263 ft | 443 kts | 214° |
| 2026-05-06 04:31 | 50.47236 | -1.84337 | 23615 ft | 445 kts | 214° |
| 2026-05-06 04:31 | 50.44642 | -1.86985 | 23935 ft | 446 kts | 214° |
| 2026-05-06 04:31 | 50.42034 | -1.89639 | 24247 ft | 447 kts | 214° |
| 2026-05-06 04:32 | 50.39414 | -1.92293 | 24538 ft | 449 kts | 214° |
| 2026-05-06 04:32 | 50.36786 | -1.94949 | 24829 ft | 450 kts | 214° |
| 2026-05-06 04:32 | 50.34148 | -1.97615 | 25123 ft | 452 kts | 214° |
| 2026-05-06 04:32 | 50.31500 | -2.00290 | 25404 ft | 454 kts | 214° |
| 2026-05-06 04:33 | 50.28845 | -2.02969 | 25702 ft | 455 kts | 213° |
| 2026-05-06 04:33 | 50.26062 | -2.05308 | 26092 ft | 455 kts | 205° |
| 2026-05-06 04:33 | 50.23074 | -2.06943 | 26500 ft | 455 kts | 196° |
| 2026-05-06 04:33 | 50.19962 | -2.07838 | 26910 ft | 456 kts | 187° |
| 2026-05-06 04:34 | 50.16804 | -2.08244 | 27302 ft | 455 kts | 186° |
| 2026-05-06 04:34 | 50.13647 | -2.08645 | 27679 ft | 455 kts | 186° |
| 2026-05-06 04:34 | 50.10498 | -2.09054 | 28088 ft | 453 kts | 186° |
| 2026-05-06 04:34 | 50.07359 | -2.09465 | 28531 ft | 452 kts | 186° |
| 2026-05-06 04:35 | 50.04228 | -2.09871 | 28942 ft | 451 kts | 186° |
| 2026-05-06 04:35 | 50.01101 | -2.10273 | 29366 ft | 450 kts | 186° |
| 2026-05-06 04:35 | 49.98014 | -2.10896 | 29812 ft | 447 kts | 193° |
| 2026-05-06 04:35 | 49.95021 | -2.12153 | 30184 ft | 445 kts | 198° |
| 2026-05-06 04:36 | 49.92054 | -2.13554 | 30423 ft | 447 kts | 197° |
| 2026-05-06 04:36 | 49.89075 | -2.14948 | 30692 ft | 448 kts | 198° |
| 2026-05-06 04:36 | 49.86090 | -2.16338 | 30983 ft | 448 kts | 197° |
| 2026-05-06 04:36 | 49.83095 | -2.17727 | 31272 ft | 449 kts | 197° |
| 2026-05-06 04:37 | 49.80107 | -2.19112 | 31573 ft | 449 kts | 198° |
| 2026-05-06 04:37 | 49.77152 | -2.20486 | 31860 ft | 450 kts | 197° |
| 2026-05-06 04:37 | 49.74148 | -2.21884 | 31949 ft | 453 kts | 198° |
| 2026-05-06 04:38 | 49.68076 | -2.24709 | 31959 ft | 458 kts | 197° |
| 2026-05-06 04:38 | 49.61976 | -2.27531 | 31960 ft | 458 kts | 198° |
| 2026-05-06 04:39 | 49.55875 | -2.30341 | 31955 ft | 458 kts | 198° |
| 2026-05-06 04:39 | 49.49775 | -2.33147 | 31947 ft | 458 kts | 197° |
| 2026-05-06 04:40 | 49.43667 | -2.35948 | 31933 ft | 458 kts | 197° |
| 2026-05-06 04:40 | 49.37558 | -2.38745 | 31929 ft | 459 kts | 197° |
| 2026-05-06 04:41 | 49.31436 | -2.41544 | 31938 ft | 459 kts | 197° |
| 2026-05-06 04:41 | 49.25312 | -2.44327 | 31934 ft | 459 kts | 197° |
| 2026-05-06 04:42 | 49.19179 | -2.47109 | 31935 ft | 460 kts | 197° |
| 2026-05-06 04:42 | 49.13036 | -2.49893 | 31938 ft | 461 kts | 197° |
| 2026-05-06 04:43 | 49.06920 | -2.52651 | 31930 ft | 461 kts | 197° |
| 2026-05-06 04:43 | 49.00716 | -2.55438 | 31948 ft | 462 kts | 197° |
| 2026-05-06 04:44 | 48.94548 | -2.58222 | 31933 ft | 463 kts | 197° |
| 2026-05-06 04:44 | 48.88367 | -2.60998 | 31940 ft | 463 kts | 197° |
| 2026-05-06 04:45 | 48.82184 | -2.63760 | 31933 ft | 463 kts | 197° |
| 2026-05-06 04:45 | 48.76001 | -2.66518 | 31945 ft | 463 kts | 197° |
| 2026-05-06 04:46 | 48.69822 | -2.69260 | 31946 ft | 463 kts | 197° |
| 2026-05-06 04:46 | 48.63649 | -2.71998 | 31948 ft | 462 kts | 197° |
| 2026-05-06 04:47 | 48.57478 | -2.74744 | 31939 ft | 463 kts | 197° |
| 2026-05-06 04:47 | 48.51292 | -2.77467 | 31933 ft | 463 kts | 197° |
| 2026-05-06 04:48 | 48.45097 | -2.80191 | 31938 ft | 464 kts | 197° |
| 2026-05-06 04:48 | 48.38900 | -2.82915 | 31941 ft | 464 kts | 197° |
| 2026-05-06 04:49 | 48.32688 | -2.85631 | 31934 ft | 465 kts | 197° |
| 2026-05-06 04:49 | 48.26465 | -2.88354 | 31927 ft | 466 kts | 197° |
| 2026-05-06 04:50 | 48.20233 | -2.91070 | 31929 ft | 467 kts | 197° |
| 2026-05-06 04:50 | 48.13992 | -2.93779 | 31938 ft | 468 kts | 197° |
| 2026-05-06 04:51 | 48.07733 | -2.96483 | 31928 ft | 468 kts | 197° |
| 2026-05-06 04:51 | 48.01475 | -2.99190 | 31921 ft | 468 kts | 197° |
| 2026-05-06 04:52 | 47.95224 | -3.01893 | 31936 ft | 468 kts | 197° |
| 2026-05-06 04:52 | 47.88963 | -3.04597 | 31930 ft | 469 kts | 197° |
| 2026-05-06 04:53 | 47.82692 | -3.07288 | 31935 ft | 469 kts | 197° |
| 2026-05-06 04:53 | 47.76415 | -3.09967 | 31927 ft | 470 kts | 197° |
| 2026-05-06 04:54 | 47.70124 | -3.12650 | 31918 ft | 471 kts | 196° |
| 2026-05-06 04:54 | 47.63818 | -3.15336 | 31928 ft | 472 kts | 196° |
| 2026-05-06 04:55 | 47.57502 | -3.18025 | 31925 ft | 472 kts | 196° |
| 2026-05-06 04:55 | 47.51183 | -3.20700 | 31928 ft | 473 kts | 196° |
| 2026-05-06 04:56 | 47.44853 | -3.23371 | 31931 ft | 473 kts | 196° |
| 2026-05-06 04:56 | 47.38518 | -3.26050 | 31922 ft | 474 kts | 196° |
| 2026-05-06 04:57 | 47.32169 | -3.28725 | 31940 ft | 475 kts | 196° |
| 2026-05-06 04:57 | 47.25806 | -3.31394 | 31910 ft | 476 kts | 196° |
| 2026-05-06 04:58 | 47.19427 | -3.34064 | 31933 ft | 477 kts | 197° |
| 2026-05-06 04:58 | 47.13042 | -3.36735 | 31938 ft | 477 kts | 196° |
| 2026-05-06 04:59 | 47.06644 | -3.39400 | 31932 ft | 478 kts | 196° |
| 2026-05-06 04:59 | 47.00237 | -3.42059 | 31940 ft | 479 kts | 196° |
| 2026-05-06 05:00 | 46.93826 | -3.44709 | 31938 ft | 479 kts | 196° |
| 2026-05-06 05:00 | 46.87411 | -3.47362 | 31946 ft | 479 kts | 196° |
| 2026-05-06 05:01 | 46.80990 | -3.50010 | 31945 ft | 479 kts | 196° |
| 2026-05-06 05:01 | 46.74567 | -3.52650 | 31950 ft | 479 kts | 196° |
| 2026-05-06 05:02 | 46.69235 | -3.54840 | 31946 ft | 479 kts | 196° |
| 2026-05-06 05:02 | 46.62813 | -3.57471 | 31948 ft | 479 kts | 196° |
| 2026-05-06 05:03 | 46.56395 | -3.60104 | 31954 ft | 479 kts | 196° |
| 2026-05-06 05:03 | 46.49968 | -3.62730 | 31933 ft | 480 kts | 196° |
| 2026-05-06 05:04 | 46.43539 | -3.65339 | 31950 ft | 480 kts | 196° |
| 2026-05-06 05:04 | 46.37108 | -3.67940 | 31952 ft | 480 kts | 196° |
| 2026-05-06 05:05 | 46.30621 | -3.70166 | 31967 ft | 480 kts | 186° |
| 2026-05-06 05:05 | 46.23975 | -3.71164 | 31957 ft | 480 kts | 186° |
| 2026-05-06 05:06 | 46.17323 | -3.72155 | 31951 ft | 481 kts | 186° |
| 2026-05-06 05:06 | 46.10671 | -3.73137 | 31948 ft | 481 kts | 186° |
| 2026-05-06 05:07 | 46.04013 | -3.74129 | 31953 ft | 481 kts | 186° |
| 2026-05-06 05:07 | 45.97359 | -3.75117 | 31941 ft | 481 kts | 186° |
| 2026-05-06 05:08 | 45.90695 | -3.76105 | 31945 ft | 481 kts | 185° |
| 2026-05-06 05:08 | 45.84030 | -3.77079 | 31946 ft | 482 kts | 185° |
| 2026-05-06 05:09 | 45.77354 | -3.78057 | 31946 ft | 482 kts | 185° |
| 2026-05-06 05:09 | 45.70671 | -3.79032 | 31956 ft | 483 kts | 185° |
| 2026-05-06 05:10 | 45.63987 | -3.80007 | 31953 ft | 483 kts | 185° |
| 2026-05-06 05:10 | 45.57300 | -3.80996 | 31955 ft | 483 kts | 186° |
| 2026-05-06 05:11 | 45.50607 | -3.81980 | 31960 ft | 484 kts | 185° |
| 2026-05-06 05:11 | 45.43910 | -3.82947 | 31966 ft | 484 kts | 185° |
| 2026-05-06 05:12 | 45.37218 | -3.83905 | 31967 ft | 483 kts | 185° |
| 2026-05-06 05:12 | 45.30524 | -3.84871 | 31966 ft | 483 kts | 185° |
| 2026-05-06 05:13 | 45.23839 | -3.85837 | 31970 ft | 483 kts | 186° |
| 2026-05-06 05:13 | 45.17159 | -3.86810 | 31967 ft | 482 kts | 186° |
| 2026-05-06 05:14 | 45.10482 | -3.87776 | 31964 ft | 482 kts | 186° |
| 2026-05-06 05:14 | 45.03816 | -3.88729 | 31966 ft | 482 kts | 186° |
| 2026-05-06 05:15 | 44.97144 | -3.89674 | 31969 ft | 481 kts | 186° |
| 2026-05-06 05:15 | 44.90478 | -3.90617 | 31972 ft | 481 kts | 186° |
| 2026-05-06 05:16 | 44.83813 | -3.91573 | 31973 ft | 481 kts | 186° |
| 2026-05-06 05:16 | 44.77153 | -3.92525 | 31977 ft | 481 kts | 186° |
| 2026-05-06 05:17 | 44.70495 | -3.93467 | 31974 ft | 481 kts | 186° |
| 2026-05-06 05:17 | 44.63879 | -3.94390 | 31975 ft | 481 kts | 186° |
| 2026-05-06 05:18 | 44.57226 | -3.95329 | 31977 ft | 480 kts | 186° |
| 2026-05-06 05:18 | 44.50579 | -3.96274 | 31969 ft | 480 kts | 186° |
| 2026-05-06 05:19 | 44.43936 | -3.97207 | 31979 ft | 480 kts | 186° |
| 2026-05-06 05:19 | 44.37291 | -3.98130 | 31969 ft | 480 kts | 186° |
| 2026-05-06 05:20 | 44.30634 | -3.98534 | 31974 ft | 480 kts | 176° |
| 2026-05-06 05:20 | 44.23978 | -3.97857 | 31968 ft | 480 kts | 176° |
| 2026-05-06 05:21 | 44.17321 | -3.97212 | 31974 ft | 480 kts | 176° |
| 2026-05-06 05:21 | 44.10659 | -3.96569 | 31972 ft | 480 kts | 176° |
| 2026-05-06 05:22 | 44.03997 | -3.95925 | 31973 ft | 480 kts | 176° |
| 2026-05-06 05:22 | 43.97320 | -3.95273 | 31991 ft | 481 kts | 176° |
| 2026-05-06 05:23 | 43.90647 | -3.94616 | 31979 ft | 481 kts | 177° |
| 2026-05-06 05:23 | 43.80631 | -3.93655 | 31992 ft | 481 kts | 177° |
| 2026-05-06 05:24 | 43.73939 | -3.93015 | 31990 ft | 481 kts | 178° |
| 2026-05-06 05:24 | 43.67258 | -3.92369 | 31999 ft | 481 kts | 177° |
| 2026-05-06 05:25 | 43.60582 | -3.91735 | 31990 ft | 481 kts | 177° |
| 2026-05-06 05:25 | 43.53953 | -3.91100 | 31989 ft | 480 kts | 178° |
| 2026-05-06 05:26 | 43.47244 | -3.90452 | 31998 ft | 479 kts | 178° |
| 2026-05-06 05:26 | 43.40668 | -3.90888 | 31997 ft | 476 kts | 188° |
| 2026-05-06 05:27 | 43.34094 | -3.91879 | 31991 ft | 476 kts | 188° |
| 2026-05-06 05:27 | 43.27516 | -3.92828 | 32001 ft | 476 kts | 188° |
| 2026-05-06 05:28 | 43.20926 | -3.93792 | 32011 ft | 476 kts | 188° |
| 2026-05-06 05:28 | 43.14343 | -3.94769 | 32011 ft | 476 kts | 189° |
| 2026-05-06 05:29 | 43.07767 | -3.95742 | 32041 ft | 475 kts | 189° |
| 2026-05-06 05:29 | 43.01200 | -3.96706 | 32046 ft | 474 kts | 189° |
| 2026-05-06 05:30 | 42.94640 | -3.97662 | 32037 ft | 474 kts | 189° |
| 2026-05-06 05:30 | 42.88095 | -3.98619 | 32062 ft | 472 kts | 189° |
| 2026-05-06 05:31 | 42.81572 | -3.99578 | 32069 ft | 471 kts | 189° |
| 2026-05-06 05:31 | 42.75061 | -4.00528 | 32067 ft | 470 kts | 189° |
| 2026-05-06 05:32 | 42.68555 | -4.01466 | 32062 ft | 470 kts | 189° |
| 2026-05-06 05:32 | 42.62052 | -4.02407 | 32053 ft | 470 kts | 189° |
| 2026-05-06 05:33 | 42.55550 | -4.03346 | 32049 ft | 470 kts | 189° |
| 2026-05-06 05:33 | 42.49070 | -4.04283 | 32058 ft | 468 kts | 191° |
| 2026-05-06 05:34 | 42.42609 | -4.05228 | 32069 ft | 466 kts | 191° |
| 2026-05-06 05:34 | 42.36173 | -4.06161 | 32071 ft | 465 kts | 191° |
| 2026-05-06 05:35 | 42.29746 | -4.07086 | 32063 ft | 464 kts | 191° |
| 2026-05-06 05:35 | 42.23338 | -4.08002 | 32062 ft | 462 kts | 191° |
| 2026-05-06 05:36 | 42.16944 | -4.08897 | 32058 ft | 462 kts | 191° |
| 2026-05-06 05:36 | 42.10554 | -4.09807 | 32030 ft | 461 kts | 191° |
| 2026-05-06 05:37 | 42.04140 | -4.10729 | 32042 ft | 460 kts | 191° |
| 2026-05-06 05:37 | 41.97800 | -4.11564 | 32046 ft | 461 kts | 190° |
| 2026-05-06 05:38 | 41.91399 | -4.12245 | 32056 ft | 461 kts | 189° |
| 2026-05-06 05:38 | 41.84966 | -4.12921 | 32045 ft | 460 kts | 190° |
| 2026-05-06 05:39 | 41.78631 | -4.13642 | 32052 ft | 460 kts | 190° |
| 2026-05-06 05:39 | 41.72258 | -4.14381 | 32050 ft | 460 kts | 190° |
| 2026-05-06 05:40 | 41.65890 | -4.15112 | 32042 ft | 459 kts | 190° |
| 2026-05-06 05:40 | 41.59484 | -4.15831 | 32049 ft | 458 kts | 190° |
| 2026-05-06 05:41 | 41.53169 | -4.16533 | 32055 ft | 458 kts | 190° |
| 2026-05-06 05:41 | 41.46823 | -4.17256 | 32023 ft | 457 kts | 190° |
| 2026-05-06 05:42 | 41.40490 | -4.17976 | 32040 ft | 457 kts | 190° |
| 2026-05-06 05:42 | 41.34191 | -4.18689 | 31801 ft | 446 kts | 190° |
| 2026-05-06 05:43 | 41.31131 | -4.19027 | 31548 ft | 438 kts | 190° |
| 2026-05-06 05:43 | 41.28098 | -4.19360 | 31295 ft | 436 kts | 190° |
| 2026-05-06 05:43 | 41.25076 | -4.19681 | 31019 ft | 435 kts | 190° |
| 2026-05-06 05:43 | 41.22055 | -4.19926 | 30772 ft | 436 kts | 189° |
| 2026-05-06 05:44 | 41.19022 | -4.20106 | 30528 ft | 436 kts | 188° |
| 2026-05-06 05:44 | 41.15986 | -4.20253 | 30285 ft | 437 kts | 188° |
| 2026-05-06 05:44 | 41.12947 | -4.20394 | 30034 ft | 437 kts | 188° |
| 2026-05-06 05:44 | 41.09902 | -4.20550 | 29751 ft | 438 kts | 188° |
| 2026-05-06 05:45 | 41.06861 | -4.20720 | 29333 ft | 436 kts | 188° |
| 2026-05-06 05:45 | 41.03848 | -4.20895 | 28608 ft | 431 kts | 188° |
| 2026-05-06 05:45 | 41.01830 | -4.21015 | 28157 ft | 428 kts | 188° |
| 2026-05-06 05:45 | 40.97905 | -4.21254 | 27253 ft | 424 kts | 188° |
| 2026-05-06 05:46 | 40.95916 | -4.21374 | 26794 ft | 422 kts | 188° |
| 2026-05-06 05:46 | 40.92990 | -4.21553 | 26146 ft | 419 kts | 188° |
| 2026-05-06 05:46 | 40.90082 | -4.21735 | 25488 ft | 417 kts | 188° |
| 2026-05-06 05:46 | 40.87197 | -4.21916 | 24846 ft | 414 kts | 188° |
| 2026-05-06 05:47 | 40.84325 | -4.22094 | 24207 ft | 412 kts | 188° |
| 2026-05-06 05:47 | 40.81465 | -4.22267 | 23556 ft | 410 kts | 188° |
| 2026-05-06 05:47 | 40.78623 | -4.22433 | 22870 ft | 407 kts | 188° |
| 2026-05-06 05:47 | 40.75807 | -4.22595 | 22308 ft | 403 kts | 188° |
| 2026-05-06 05:48 | 40.73020 | -4.22762 | 21741 ft | 399 kts | 188° |
| 2026-05-06 05:48 | 40.70265 | -4.22930 | 21210 ft | 394 kts | 187° |
| 2026-05-06 05:48 | 40.67540 | -4.23094 | 20680 ft | 390 kts | 187° |
| 2026-05-06 05:48 | 40.64849 | -4.23255 | 20194 ft | 385 kts | 187° |
| 2026-05-06 05:49 | 40.62183 | -4.23414 | 19707 ft | 382 kts | 187° |
| 2026-05-06 05:49 | 40.59542 | -4.23569 | 19238 ft | 378 kts | 187° |
| 2026-05-06 05:49 | 40.56926 | -4.23725 | 18759 ft | 376 kts | 187° |
| 2026-05-06 05:49 | 40.54316 | -4.23812 | 18267 ft | 376 kts | 181° |
| 2026-05-06 05:50 | 40.51711 | -4.23366 | 17740 ft | 379 kts | 170° |
| 2026-05-06 05:50 | 40.49199 | -4.22314 | 17214 ft | 380 kts | 161° |
| 2026-05-06 05:50 | 40.46745 | -4.21042 | 16685 ft | 378 kts | 161° |
| 2026-05-06 05:50 | 40.44300 | -4.19782 | 16156 ft | 377 kts | 161° |
| 2026-05-06 05:51 | 40.41860 | -4.18531 | 15617 ft | 376 kts | 161° |
| 2026-05-06 05:51 | 40.39425 | -4.17282 | 15057 ft | 376 kts | 160° |
| 2026-05-06 05:51 | 40.37119 | -4.15658 | 14522 ft | 378 kts | 147° |
| 2026-05-06 05:51 | 40.35134 | -4.13402 | 13958 ft | 380 kts | 133° |
| 2026-05-06 05:52 | 40.33543 | -4.10604 | 13009 ft | 389 kts | 120° |
| 2026-05-06 05:52 | 40.32497 | -4.07365 | 12588 ft | 381 kts | 107° |
| 2026-05-06 05:52 | 40.31710 | -4.04121 | 12455 ft | 366 kts | 108° |
| 2026-05-06 05:52 | 40.30930 | -4.01013 | 12318 ft | 352 kts | 108° |
| 2026-05-06 05:53 | 40.30169 | -3.98026 | 12189 ft | 339 kts | 108° |
| 2026-05-06 05:53 | 40.29433 | -3.95149 | 12062 ft | 328 kts | 108° |
| 2026-05-06 05:53 | 40.28723 | -3.92360 | 11926 ft | 318 kts | 108° |
| 2026-05-06 05:53 | 40.28033 | -3.89636 | 11635 ft | 314 kts | 108° |
| 2026-05-06 05:54 | 40.27346 | -3.86930 | 11283 ft | 312 kts | 108° |
| 2026-05-06 05:54 | 40.26661 | -3.84235 | 10944 ft | 310 kts | 108° |
| 2026-05-06 05:54 | 40.25983 | -3.81564 | 10591 ft | 308 kts | 108° |
| 2026-05-06 05:54 | 40.25310 | -3.78919 | 10286 ft | 304 kts | 108° |
| 2026-05-06 05:55 | 40.24646 | -3.76306 | 9994 ft | 301 kts | 108° |
| 2026-05-06 05:55 | 40.23989 | -3.73715 | 9710 ft | 299 kts | 108° |
| 2026-05-06 05:55 | 40.23338 | -3.71142 | 9406 ft | 297 kts | 108° |
| 2026-05-06 05:55 | 40.22690 | -3.68582 | 9132 ft | 295 kts | 108° |
| 2026-05-06 05:56 | 40.22045 | -3.66039 | 8852 ft | 294 kts | 108° |
| 2026-05-06 05:56 | 40.21400 | -3.63507 | 8572 ft | 292 kts | 108° |
| 2026-05-06 05:56 | 40.20757 | -3.60992 | 8288 ft | 291 kts | 108° |
| 2026-05-06 05:56 | 40.20107 | -3.58455 | 8017 ft | 289 kts | 108° |
| 2026-05-06 05:57 | 40.19475 | -3.56003 | 7741 ft | 287 kts | 109° |
| 2026-05-06 05:57 | 40.18832 | -3.53500 | 7468 ft | 285 kts | 108° |
| 2026-05-06 05:57 | 40.18211 | -3.51066 | 7270 ft | 277 kts | 108° |
| 2026-05-06 05:57 | 40.17735 | -3.48685 | 7108 ft | 266 kts | 95° |
| 2026-05-06 05:58 | 40.17892 | -3.46326 | 6931 ft | 259 kts | 72° |
| 2026-05-06 05:58 | 40.18664 | -3.44221 | 6721 ft | 255 kts | 51° |
| 2026-05-06 05:58 | 40.19901 | -3.42579 | 6603 ft | 253 kts | 40° |
| 2026-05-06 05:58 | 40.21240 | -3.41172 | 6475 ft | 241 kts | 30° |
| 2026-05-06 05:59 | 40.22678 | -3.40127 | 6327 ft | 233 kts | 27° |
| 2026-05-06 05:59 | 40.24088 | -3.39106 | 6146 ft | 230 kts | 27° |
| 2026-05-06 05:59 | 40.25555 | -3.38326 | 5993 ft | 227 kts | 11° |
| 2026-05-06 05:59 | 40.27098 | -3.38090 | 5840 ft | 220 kts | 2° |
| 2026-05-06 06:00 | 40.28606 | -3.37977 | 5683 ft | 214 kts | 2° |
| 2026-05-06 06:00 | 40.30078 | -3.37865 | 5527 ft | 209 kts | 2° |
| 2026-05-06 06:00 | 40.31498 | -3.38005 | 5395 ft | 202 kts | 343° |
| 2026-05-06 06:00 | 40.32735 | -3.38815 | 5272 ft | 199 kts | 322° |
| 2026-05-06 06:01 | 40.33825 | -3.39926 | 5185 ft | 198 kts | 322° |
| 2026-05-06 06:01 | 40.34921 | -3.41035 | 5003 ft | 199 kts | 323° |
| 2026-05-06 06:01 | 40.36008 | -3.42134 | 4783 ft | 195 kts | 323° |
| 2026-05-06 06:01 | 40.37067 | -3.43203 | 4513 ft | 190 kts | 323° |
| 2026-05-06 06:02 | 40.38105 | -3.44252 | 4244 ft | 186 kts | 323° |
| 2026-05-06 06:02 | 40.39117 | -3.45275 | 3993 ft | 180 kts | 323° |
| 2026-05-06 06:02 | 40.40079 | -3.46249 | 3769 ft | 169 kts | 324° |
| 2026-05-06 06:02 | 40.40987 | -3.47167 | 3562 ft | 155 kts | 324° |
| 2026-05-06 06:03 | 40.41817 | -3.48007 | 3343 ft | 148 kts | 324° |
| 2026-05-06 06:03 | 40.42631 | -3.48830 | 3097 ft | 143 kts | 323° |
| 2026-05-06 06:03 | 40.43411 | -3.49620 | 2904 ft | 140 kts | 323° |
| 2026-05-06 06:03 | 40.44179 | -3.50398 | 2723 ft | 139 kts | 323° |
| 2026-05-06 06:04 | 40.44944 | -3.51172 | 2530 ft | 139 kts | 323° |
| 2026-05-06 06:04 | 40.45710 | -3.51947 | 2350 ft | 139 kts | 324° |
| 2026-05-06 06:04 | 40.46468 | -3.52717 | 2162 ft | 137 kts | 323° |
| 2026-05-06 06:04 | 40.47227 | -3.53490 | 1977 ft | 135 kts | 323° |
| 2026-05-06 06:05 | 40.47929 | -3.54216 | 1932 ft | 115 kts | 322° |
| 2026-05-06 06:05 | 40.48447 | -3.54726 | 1939 ft | 69 kts | 322° |
| 2026-05-06 06:05 | 40.48686 | -3.54980 | 1948 ft | 28 kts | 317° |
| 2026-05-06 06:05 | 40.48791 | -3.55183 | 1953 ft | 26 kts | 294° |
| 2026-05-06 06:06 | 40.48849 | -3.55368 | 1951 ft | 11 kts | 292° |
| 2026-05-06 06:06 | 40.48850 | -3.55372 | 1951 ft | 0 kts | 292° |
| 2026-05-06 06:09 | 40.48855 | -3.55389 | 1954 ft | 8 kts | 292° |
| 2026-05-06 06:09 | 40.48900 | -3.55469 | 1953 ft | 14 kts | 316° |
| 2026-05-06 06:09 | 40.48985 | -3.55559 | 1953 ft | 17 kts | 322° |
| 2026-05-06 06:09 | 40.49081 | -3.55656 | 1956 ft | 17 kts | 323° |
| 2026-05-06 06:10 | 40.49173 | -3.55748 | 1960 ft | 17 kts | 322° |
| 2026-05-06 06:10 | 40.49267 | -3.55847 | 1960 ft | 18 kts | 321° |
| 2026-05-06 06:10 | 40.49300 | -3.56002 | 1959 ft | 20 kts | 270° |
| 2026-05-06 06:10 | 40.49255 | -3.56140 | 1959 ft | 16 kts | 192° |
| 2026-05-06 06:11 | 40.49145 | -3.56139 | 1959 ft | 15 kts | 178° |
| 2026-05-06 06:11 | 40.49043 | -3.56140 | 1959 ft | 14 kts | 181° |
| 2026-05-06 06:11 | 40.48953 | -3.56138 | 1959 ft | 12 kts | 179° |
| 2026-05-06 06:11 | 40.48873 | -3.56138 | 1959 ft | 11 kts | 180° |
| 2026-05-06 06:12 | 40.48805 | -3.56140 | 1959 ft | 9 kts | 192° |
| 2026-05-06 06:12 | 40.48771 | -3.56184 | 1960 ft | 5 kts | 250° |
| 2026-05-06 06:12 | 40.48768 | -3.56270 | 1963 ft | 17 kts | 270° |
| 2026-05-06 06:12 | 40.48768 | -3.56421 | 1967 ft | 16 kts | 270° |
| 2026-05-06 06:13 | 40.48768 | -3.56564 | 1971 ft | 17 kts | 270° |
| 2026-05-06 06:13 | 40.48768 | -3.56722 | 1976 ft | 17 kts | 268° |
| 2026-05-06 06:13 | 40.48766 | -3.56883 | 1981 ft | 17 kts | 269° |
| 2026-05-06 06:13 | 40.48766 | -3.57042 | 1984 ft | 17 kts | 269° |
| 2026-05-06 06:14 | 40.48764 | -3.57200 | 1983 ft | 17 kts | 269° |
| 2026-05-06 06:14 | 40.48765 | -3.57385 | 1987 ft | 25 kts | 269° |
| 2026-05-06 06:14 | 40.48764 | -3.57612 | 1991 ft | 25 kts | 269° |
| 2026-05-06 06:14 | 40.48762 | -3.57837 | 1996 ft | 24 kts | 270° |
| 2026-05-06 06:15 | 40.48762 | -3.58051 | 2003 ft | 23 kts | 269° |
| 2026-05-06 06:15 | 40.48761 | -3.58249 | 2010 ft | 21 kts | 270° |
| 2026-05-06 06:15 | 40.48760 | -3.58431 | 2016 ft | 19 kts | 270° |
| 2026-05-06 06:15 | 40.48760 | -3.58599 | 2026 ft | 18 kts | 269° |
| 2026-05-06 06:16 | 40.48758 | -3.58744 | 2022 ft | 9 kts | 269° |
| 2026-05-06 06:16 | 40.48776 | -3.58802 | 2031 ft | 6 kts | 321° |
| 2026-05-06 06:16 | 40.48812 | -3.58811 | 2022 ft | 5 kts | 357° |
| 2026-05-06 06:16 | 40.48831 | -3.58812 | 2029 ft | 4 kts | 358° |
| 2026-05-06 06:17 | 40.48852 | -3.58813 | 2028 ft | 2 kts | 358° |
| 2026-05-06 06:17 | 40.48872 | -3.58813 | 2026 ft | 4 kts | 2° |
| 2026-05-06 06:17 | 40.48907 | -3.58811 | 2022 ft | 7 kts | 1° |
| 2026-05-06 06:17 | 40.48952 | -3.58811 | 2022 ft | 6 kts | 359° |
| 2026-05-06 06:18 | 40.48986 | -3.58812 | 2022 ft | 4 kts | 359° |
| 2026-05-06 06:18 | 40.49011 | -3.58813 | 2022 ft | 4 kts | 359° |
| 2026-05-06 06:18 | 40.49043 | -3.58848 | 2022 ft | 7 kts | 270° |
| 2026-05-06 06:18 | 40.49043 | -3.58905 | 2022 ft | 5 kts | 270° |
| 2026-05-06 06:19 | 40.49043 | -3.58928 | 2022 ft | 0 kts | 270° |
| 2026-05-06 06:19 | 40.49042 | -3.58944 | 2022 ft | 2 kts | 270° |
| 2026-05-06 06:19 | 40.49042 | -3.58950 | 2022 ft | 2 kts | 269° |
| 2026-05-06 06:19 | 40.49042 | -3.58962 | 2022 ft | 1 kts | 269° |
| 2026-05-06 06:20 | 40.49042 | -3.58965 | 2022 ft | 0 kts | 270° |